首页
METAR-TAF:

METAR-TAF

机场 :

Massena, 紐約州, 美国

纬度: 44-56-09N, 经度: 074-50-44W, 海拔: 66米

当前天气观测

该预报发布于38分钟前的13:53 UTC
风速7节,风向东转东北
温度 -2°C
湿度 86%
气压 1017 hPa
能見度: 6.4公里
多云层高于4200英尺
轻雾

METAR: KMSS 151353Z AUTO 06007KT 4SM BR BKN042 M02/M04 A3002 RMK AO2 SLP172 T10221039

时间: 09:31 (14:31 UTC)

预报

该预报发布于2小时和54分钟前的11:37 UTC
预报有效从15日的 12点(UTC)到 16日的 12点(UTC)
风速6节,风向东转东北
能見度: 6.4公里
散云层高于300英尺
多云层高于4000英尺
轻雾
短暂存在
从 15日的 12点(UTC)到 15日的 15点(UTC)
能見度: 3.2公里
多云层高于300英尺
轻雾
从 15日的 1600点(UTC)
风速8节,风向东转东北
能見度: 10公里
散云层高于4000英尺
多云层高于15000英尺
从 16日的 0400点(UTC)
风速8节,风向东转东北
能見度: 10公里
阴天层高于9000英尺
附近有阵雨
从 16日的 0700点(UTC)
风速10节,风向东转东北
能見度: 2.4公里
阴天层高于4500英尺
小雪, 轻雾

TAF: KMSS 151137Z 1512/1612 07006KT 4SM BR SCT003 BKN040 TEMPO 1512/1515 2SM BR BKN003 FM151600 07008KT P6SM SCT040 BKN150 FM160400 06008KT P6SM VCSH OVC090 FM160700 06010KT 1 1/2SM -SN BR OVC045 WS020/15035KT

超过4000个机场的气象观测和天气预报(METAR&TAF报告)。

可查询的气象台以黄色和红色小点在地图上表示。

将鼠标移到小点上方,可查看气象台名称。

然后点击查看天气观测和预报。

如需切换地图:点击带黑十字的绿色按钮放大地图;点击带横线的绿色按钮缩小地图;或者点击绿色箭头查看邻近地区的地图。


METAR-TAF: